LIEOLIMP

Guest
Details From LIEO - Olbia Costa Smeralda
To LIMP - Parma
Flight Number -
Tags Generated
Created
Modified
Stats Distance 238 nm / 441 km
Max Altitude 0 ft / 0 m
Waypoints 4
Social Downloads 1
Likes 0
Share VATSIM

Download

Looking for another format? Having issues loading an existing format? Contact us
Advertisement - Login to hide

Notes

Generated

Route

LIEO NORNI PAR04 LIMP

ID Type Via Altitude Latitude Longitude Leg Dist Tot Dist Heading (true) Name
O LIEO APT - 0 ft / 0 m 40.89241˚ 9.50569˚ - 0 nm - -
NORNI FIX - 0 ft / 0 m 43.27889˚ 9.97972˚ 144 nm 144 nm 8° / 9° -
PAR04 FIX - 0 ft / 0 m 44.75181˚ 10.25900˚ 89 nm 234 nm 8° / 8° -
O LIMP APT - 0 ft / 0 m 44.81766˚ 10.29313˚ 4 nm 238 nm 20° / 20° -

Altitude Profile

Advertisement - Login to hide

Weather


0- 5 10 15 20 25 30 35+ Temperature / ° C

Clouds and Precipitation
Forecast for 2018-05-26 06:00 UTC. Updated 2 hours ago

Ground ~20,000 ft ~40,000 ft Winds

LIEO

Details ICAO LIEO (OLB)
Name OLBIA COSTA SMERALDA
Region Italy
Timezone Europe/Rome (UTC+2.0)
Stats Elevation 37 ft / 11 m (AMSL)
Location 40.898661° 9.517629°
Runways 1
Magnetic Variation 2.489° E

METAR

LIEO 260650Z VRB01KT CAVOK 21/14 Q1018

Decode

TAF

TAF LIEO 260500Z 2606/2706 VRB04KT CAVOK BECMG 2608/2610 06012KT BECMG 2617/2619 VRB04KT

Decode

Departure Runways

ID Width Length Bearing (true) Bearing (mag) Surface Threshold Offset Overrun Length
06 148 ft / 45 m 8,013 ft / 2,442 m 55.30° 52.81° Asphalt 805 ft / 245 m 180 ft / 55 m
24 148 ft / 45 m 8,013 ft / 2,442 m 235.31° 232.82° Asphalt 495 ft / 151 m 180 ft / 55 m

LIMP

Details ICAO LIMP (PMF)
Name PARMA
Region Italy
Timezone Europe/Rome (UTC+2.0)
Stats Elevation 161 ft / 49 m (AMSL)
Location 44.826774° 10.297108°
Runways 1
Magnetic Variation 2.766° E

METAR

LIMP 260650Z VRB02KT CAVOK 22/17 Q1020

Decode

TAF

TAF LIMP 260500Z 2606/2706 VRB05KT CAVOK

Decode

Destination Runways

ID Width Length Bearing (true) Bearing (mag) Surface Threshold Offset Overrun Length
02 148 ft / 45 m 6,966 ft / 2,123 m 17.20° 14.43° Asphalt 702 ft / 214 m 0 ft / 0 m
20 148 ft / 45 m 6,966 ft / 2,123 m 197.20° 194.43° Asphalt 597 ft / 182 m 0 ft / 0 m

Approach Navaids

Runway Type Ident Frequency Range Bearing (true) Bearing (mag) Slope Elevation
20 Localiser IPR 110.50 MHz 18 nm / 33 km 197.37° 194.61° - 163 ft / 50 m (AMSL)
20 Glidescope IPR 110.50 MHz 10 nm / 19 km 197.20° 194.43° 3.00° 145 ft / 44 m (AMSL)
20 DME IPR 110.50 MHz 18 nm / 33 km - - - 163 ft / 50 m (AMSL)

Popular Alternatives